createdAt,value
2022-12-11T00:02:08.226Z,99204.53
2022-12-11T00:07:05.958Z,99167.94
2022-12-11T00:12:04.726Z,99145.91
2022-12-11T00:17:02.874Z,99202.31
2022-12-11T00:22:00.368Z,99107.53
2022-12-11T00:26:58.956Z,99141.31
2022-12-11T00:31:56.435Z,99096.44
2022-12-11T00:36:55.406Z,99140.06
2022-12-11T00:41:52.212Z,99165.91
2022-12-11T00:46:49.262Z,99171.84
2022-12-11T00:51:46.434Z,99142.47
2022-12-11T00:56:45.361Z,99135.28
2022-12-11T01:01:42.598Z,99094.47
2022-12-11T01:06:40.404Z,99016.09
2022-12-11T01:11:38.235Z,99083.88
2022-12-11T01:16:40.932Z,99099.03
2022-12-11T01:21:40.702Z,99077.59
2022-12-11T01:26:42.398Z,99075.31
2022-12-11T01:31:42.767Z,99069.16
2022-12-11T01:36:44.112Z,99064.75
2022-12-11T01:41:41.368Z,99051.78
2022-12-11T01:46:38.828Z,99039.56
2022-12-11T01:51:41.246Z,99037.31
2022-12-11T01:56:41.304Z,98992.50
2022-12-11T02:01:43.963Z,98959.09
2022-12-11T02:06:49.008Z,98984.31
2022-12-11T02:11:58.433Z,98931.28
2022-12-11T02:17:04.681Z,98953.50
2022-12-11T02:22:08.440Z,98914.25
2022-12-11T02:27:36.316Z,98954.75
2022-12-11T02:32:39.707Z,98869.13
2022-12-11T02:37:42.133Z,98924.44
2022-12-11T02:42:42.702Z,98883.13
2022-12-11T02:47:45.153Z,98887.47
2022-12-11T02:52:44.974Z,98866.84
2022-12-11T02:57:45.417Z,98882.31
2022-12-11T03:02:44.804Z,98812.63
2022-12-11T03:07:44.462Z,98857.63
2022-12-11T03:12:46.132Z,98834.47
2022-12-11T03:17:56.107Z,98828.19
2022-12-11T03:23:03.017Z,98871.56
2022-12-11T03:28:10.203Z,98842.22
2022-12-11T03:33:13.670Z,98807.50
2022-12-11T03:38:16.213Z,98855.38
2022-12-11T03:43:15.163Z,98867.47
2022-12-11T03:48:15.047Z,98861.19
2022-12-11T03:53:12.909Z,98835.97
2022-12-11T03:58:09.788Z,98841.94
2022-12-11T04:03:13.825Z,98792.16
2022-12-11T04:08:15.293Z,98829.50
2022-12-11T04:13:13.792Z,98817.22
2022-12-11T04:18:32.186Z,98874.28
2022-12-11T04:23:47.833Z,98797.97
2022-12-11T04:28:49.429Z,98811.88
2022-12-11T04:33:54.156Z,98765.13
2022-12-11T04:38:55.243Z,98722.34
2022-12-11T04:43:52.335Z,98834.56
2022-12-11T04:48:56.728Z,98755.13
2022-12-11T04:53:55.829Z,98773.69
2022-12-11T04:58:52.783Z,98852.84
2022-12-11T05:03:50.522Z,98747.53
2022-12-11T05:08:48.127Z,98807.53
2022-12-11T05:13:45.944Z,98825.63
2022-12-11T05:18:43.272Z,98767.44
2022-12-11T05:23:40.941Z,98876.22
2022-12-11T05:28:39.492Z,98829.72
2022-12-11T05:33:41.049Z,98842.69
2022-12-11T05:38:38.212Z,98849.53
2022-12-11T05:43:36.514Z,98811.38
2022-12-11T05:48:35.024Z,98919.22
2022-12-11T05:53:33.098Z,98857.50
2022-12-11T05:58:33.837Z,98915.09
2022-12-11T06:03:30.776Z,98896.13
2022-12-11T06:08:28.342Z,98921.91
2022-12-11T06:13:27.964Z,98941.66
2022-12-11T06:18:27.958Z,98977.88
2022-12-11T06:23:26.052Z,98945.69
2022-12-11T06:28:23.124Z,98992.81
2022-12-11T06:33:21.057Z,98965.78
2022-12-11T06:38:18.585Z,99010.78
2022-12-11T06:43:19.800Z,98947.00
2022-12-11T06:48:17.620Z,99022.19
2022-12-11T06:53:22.383Z,99007.56
2022-12-11T06:58:31.984Z,99011.88
2022-12-11T07:03:29.632Z,99002.44
2022-12-11T07:08:29.325Z,98979.88
2022-12-11T07:13:27.507Z,99026.16
2022-12-11T07:18:37.623Z,99071.63
2022-12-11T07:23:43.651Z,99035.22
2022-12-11T07:28:41.369Z,99018.44
2022-12-11T07:33:39.812Z,99087.97
2022-12-11T07:38:44.220Z,99023.44
2022-12-11T07:43:42.227Z,99088.50
2022-12-11T07:48:47.412Z,99045.00
2022-12-11T07:53:51.294Z,99043.41
2022-12-11T07:58:52.074Z,99122.09
2022-12-11T08:03:54.478Z,99082.75
2022-12-11T08:09:00.767Z,99083.38
2022-12-11T08:13:59.282Z,99090.50
2022-12-11T08:19:00.167Z,99076.78
2022-12-11T08:24:01.955Z,99054.06
2022-12-11T08:29:00.957Z,99025.16
2022-12-11T08:33:58.543Z,99087.81
2022-12-11T08:38:56.775Z,99096.09
2022-12-11T08:43:57.051Z,99093.56
2022-12-11T08:48:55.629Z,99110.94
2022-12-11T08:53:55.903Z,99131.94
2022-12-11T08:58:55.444Z,99166.84
2022-12-11T09:03:55.991Z,99161.78
2022-12-11T09:08:56.534Z,99162.94
2022-12-11T09:13:57.067Z,99152.22
2022-12-11T09:18:57.967Z,99122.28
2022-12-11T09:24:00.128Z,99170.72
2022-12-11T09:29:05.070Z,99084.44
2022-12-11T09:34:06.732Z,99141.13
2022-12-11T09:39:06.972Z,99166.75
2022-12-11T09:44:31.097Z,99142.38
2022-12-11T09:49:35.221Z,99159.97
2022-12-11T09:54:33.925Z,99173.25
2022-12-11T09:59:41.000Z,99128.38
2022-12-11T10:04:48.357Z,99159.72
2022-12-11T10:09:51.797Z,99149.56
2022-12-11T10:15:05.971Z,99173.09
2022-12-11T10:20:14.801Z,99116.22
2022-12-11T10:25:23.031Z,99152.25
2022-12-11T10:30:23.323Z,99180.72
2022-12-11T10:35:29.741Z,99188.91
2022-12-11T10:40:31.729Z,99173.59
2022-12-11T10:45:32.224Z,99131.78
2022-12-11T10:50:29.236Z,99175.38
2022-12-11T10:55:28.813Z,99145.88
2022-12-11T11:00:34.102Z,99176.72
2022-12-11T11:05:34.048Z,99181.97
2022-12-11T11:10:31.153Z,99197.47
2022-12-11T11:15:30.381Z,99196.34
2022-12-11T11:20:29.631Z,99184.34
2022-12-11T11:25:29.415Z,99207.69
2022-12-11T11:30:28.926Z,99212.38
2022-12-11T11:35:28.666Z,99187.63
2022-12-11T11:40:30.637Z,99182.47
2022-12-11T11:45:31.545Z,99185.97
2022-12-11T11:50:33.723Z,99213.06
2022-12-11T11:55:41.614Z,99205.41
2022-12-11T12:00:38.560Z,99150.19
2022-12-11T12:05:42.622Z,99125.28
2022-12-11T12:10:47.430Z,99212.25
2022-12-11T12:15:51.692Z,99204.75
2022-12-11T12:21:02.201Z,99218.03
2022-12-11T12:26:06.278Z,99162.69
2022-12-11T12:31:14.214Z,99201.44
2022-12-11T12:36:21.250Z,99233.03
2022-12-11T12:41:24.518Z,99223.53
2022-12-11T12:46:35.574Z,99164.50
2022-12-11T12:51:34.030Z,99253.00
2022-12-11T12:56:32.897Z,99218.69
2022-12-11T13:01:34.300Z,99251.72
2022-12-11T13:06:36.918Z,99259.31
2022-12-11T13:11:35.829Z,99289.47
2022-12-11T13:16:38.551Z,99251.25
2022-12-11T13:21:37.962Z,99295.28
2022-12-11T13:26:34.778Z,99298.00
2022-12-11T13:31:35.247Z,99297.06
2022-12-11T13:36:40.013Z,99247.88
2022-12-11T13:41:38.552Z,99290.22
2022-12-11T13:46:39.361Z,99307.97
2022-12-11T13:51:37.051Z,99317.47
2022-12-11T13:56:35.590Z,99230.94
2022-12-11T14:01:34.696Z,99294.59
2022-12-11T14:06:34.966Z,99300.78
2022-12-11T14:11:38.253Z,99373.34
2022-12-11T14:16:42.773Z,99374.47
2022-12-11T14:21:42.178Z,99349.47
2022-12-11T14:26:39.942Z,99418.34
2022-12-11T14:31:53.472Z,99393.72
2022-12-11T14:36:52.607Z,99418.19
2022-12-11T14:41:58.695Z,99408.75
2022-12-11T14:47:02.307Z,99381.69
2022-12-11T14:52:00.383Z,99385.94
2022-12-11T14:57:02.140Z,99471.31
2022-12-11T15:02:30.139Z,99366.31
2022-12-11T15:07:29.710Z,99361.31
2022-12-11T15:12:33.429Z,99470.50
2022-12-11T15:17:39.449Z,99459.25
2022-12-11T15:22:37.450Z,99468.88
2022-12-11T15:27:37.671Z,99459.06
2022-12-11T15:32:36.253Z,99458.47
2022-12-11T15:37:39.442Z,99363.25
2022-12-11T15:42:39.930Z,99449.19
2022-12-11T15:47:37.009Z,99440.72
2022-12-11T15:52:33.961Z,99484.41
2022-12-11T15:57:34.465Z,99462.03
2022-12-11T16:02:39.559Z,99484.31
2022-12-11T16:12:58.755Z,99416.47
2022-12-11T16:18:03.837Z,99537.34
2022-12-11T16:23:03.021Z,99500.34
2022-12-11T16:28:01.320Z,99497.63
2022-12-11T16:32:58.308Z,99426.84
2022-12-11T16:37:56.540Z,99520.81
2022-12-11T16:42:53.618Z,99462.69
2022-12-11T16:47:50.672Z,99511.94
2022-12-11T16:52:47.644Z,99536.19
2022-12-11T16:57:45.330Z,99537.72
2022-12-11T17:02:42.970Z,99538.13
2022-12-11T17:07:40.245Z,99580.69
2022-12-11T17:12:40.326Z,99562.63
2022-12-11T17:17:39.383Z,99601.63
2022-12-11T17:22:39.999Z,99582.66
2022-12-11T17:27:37.261Z,99567.22
2022-12-11T17:32:38.435Z,99591.19
2022-12-11T17:37:37.330Z,99589.28
2022-12-11T17:42:38.188Z,99577.81
2022-12-11T17:47:35.012Z,99630.47
2022-12-11T17:52:36.425Z,99618.59
2022-12-11T17:57:37.435Z,99628.84
2022-12-11T18:02:37.406Z,99580.16
2022-12-11T18:07:37.167Z,99637.44
2022-12-11T18:12:34.659Z,99542.22
2022-12-11T18:17:34.805Z,99548.50
2022-12-11T18:22:34.873Z,99581.91
2022-12-11T18:27:36.537Z,99632.06
2022-12-11T18:32:36.054Z,99645.47
2022-12-11T18:37:34.665Z,99567.09
2022-12-11T18:42:33.590Z,99545.94
2022-12-11T18:47:31.503Z,99566.06
2022-12-11T18:52:29.519Z,99671.47
2022-12-11T18:57:30.001Z,99653.53
2022-12-11T19:02:27.615Z,99591.03
2022-12-11T19:08:11.467Z,99607.06
2022-12-11T19:13:09.091Z,99627.38
2022-12-11T19:18:08.582Z,99685.38
2022-12-11T19:23:07.969Z,99692.50
2022-12-11T19:28:05.810Z,99682.31
2022-12-11T19:33:04.854Z,99667.06
2022-12-11T19:38:01.941Z,99713.09
2022-12-11T19:43:09.856Z,99658.00
2022-12-11T19:48:09.232Z,99732.50
2022-12-11T19:53:08.202Z,99687.31
2022-12-11T19:58:06.045Z,99728.50
2022-12-11T20:03:03.064Z,99772.13
2022-12-11T20:08:27.732Z,99753.22
2022-12-11T20:13:21.005Z,99767.25
2022-12-11T20:18:18.820Z,99769.97
2022-12-11T20:23:16.455Z,99672.66
2022-12-11T20:28:13.663Z,99684.38
2022-12-11T20:33:11.975Z,99696.72
2022-12-11T20:38:11.434Z,99731.94
2022-12-11T20:43:08.362Z,99760.50
2022-12-11T20:48:05.561Z,99772.03
2022-12-11T20:53:03.316Z,99683.16
2022-12-11T20:58:00.412Z,99778.38
2022-12-11T21:02:57.221Z,99772.59
2022-12-11T21:07:54.667Z,99784.84
2022-12-11T21:12:52.365Z,99779.97
2022-12-11T21:17:49.461Z,99778.28
2022-12-11T21:22:46.493Z,99744.00
2022-12-11T21:27:43.311Z,99782.75
2022-12-11T21:32:41.065Z,99792.41
2022-12-11T21:37:39.619Z,99742.09
2022-12-11T21:42:36.499Z,99750.97
2022-12-11T21:47:33.660Z,99762.88
2022-12-11T21:52:31.610Z,99776.63
2022-12-11T21:57:29.248Z,99772.72
2022-12-11T22:02:28.823Z,99757.34
2022-12-11T22:07:26.470Z,99824.69
2022-12-11T22:12:27.755Z,99737.28
2022-12-11T22:17:24.955Z,99836.22
2022-12-11T22:22:22.116Z,99799.94
2022-12-11T22:27:23.459Z,99764.78
2022-12-11T22:32:21.408Z,99813.84
2022-12-11T22:37:18.245Z,99856.75
2022-12-11T22:42:15.289Z,99861.59
2022-12-11T22:47:13.259Z,99854.25
2022-12-11T22:52:13.069Z,99805.00
2022-12-11T22:57:09.970Z,99835.66
2022-12-11T23:02:07.016Z,99852.78
2022-12-11T23:07:04.288Z,99851.56
2022-12-11T23:12:01.877Z,99863.28
2022-12-11T23:16:58.830Z,99858.00
2022-12-11T23:21:55.607Z,99834.91
2022-12-11T23:26:52.490Z,99847.56
2022-12-11T23:31:51.227Z,99857.75
2022-12-11T23:36:48.058Z,99871.28
2022-12-11T23:41:45.031Z,99867.00
2022-12-11T23:46:42.096Z,99853.22
2022-12-11T23:51:39.889Z,99880.22
2022-12-11T23:56:36.670Z,99857.91
